Time;durP1;ratioP1;P1;durP2;ratioP2;P2;SDS_P1;SDS_P2;PMS_P1;PMS_P2;Temp;Humidity;BMP_temperature;BMP_pressure;BME280_temperature;BME280_humidity;BME280_pressure;Samples;Min_cycle;Max_cycle;Signal;HPM_P1;HPM_P2
2023/08/22 00:02:23;;;;;;;;;2.50;2.50;;;;;26.59;35.25;101556.38;5082118;28;45348;-64
2023/08/22 00:04:48;;;;;;;;;4.00;4.00;;;;;26.55;34.89;101555.78;5080024;27;48039;-64
2023/08/22 00:07:14;;;;;;;;;4.00;2.75;;;;;26.51;35.22;101559.63;5082435;28;45149;-64
2023/08/22 00:09:39;;;;;;;;;3.00;2.25;;;;;26.48;35.39;101543.69;5082497;28;45268;-64
2023/08/22 00:12:05;;;;;;;;;2.50;2.50;;;;;26.44;34.78;101539.47;5082171;28;45319;-64
2023/08/22 00:14:31;;;;;;;;;2.75;2.75;;;;;26.43;35.60;101538.59;5082227;28;45605;-64
2023/08/22 00:16:56;;;;;;;;;1.25;1.25;;;;;26.42;35.04;101538.72;5081836;27;45235;-64
2023/08/22 00:19:21;;;;;;;;;3.00;2.00;;;;;26.40;35.04;101530.75;5082412;28;45258;-65
2023/08/22 00:21:47;;;;;;;;;1.25;1.25;;;;;26.39;35.45;101528.13;5081998;28;48573;-65
2023/08/22 00:24:12;;;;;;;;;2.25;1.50;;;;;26.38;35.28;101529.97;5081908;27;46287;-65
2023/08/22 00:26:37;;;;;;;;;3.00;2.00;;;;;26.35;35.19;101527.50;5081858;27;45231;-65
2023/08/22 00:29:02;;;;;;;;;1.00;1.00;;;;;26.33;35.20;101521.34;5082091;28;45276;-65
2023/08/22 00:31:28;;;;;;;;;2.00;2.00;;;;;26.33;35.47;101525.88;5080721;28;45491;-65
2023/08/22 00:33:53;;;;;;;;;2.00;2.00;;;;;26.30;35.66;101509.91;5081894;28;45242;-65
2023/08/22 00:36:18;;;;;;;;;3.75;2.00;;;;;26.26;35.80;101511.97;5081613;27;51510;-64
2023/08/22 00:38:44;;;;;;;;;2.00;1.00;;;;;26.25;35.67;101513.81;5082005;28;45392;-65
2023/08/22 00:41:09;;;;;;;;;1.50;1.50;;;;;26.21;35.73;101517.69;5081758;28;45471;-64
2023/08/22 00:43:34;;;;;;;;;2.00;2.00;;;;;26.20;35.24;101515.06;5081639;28;45391;-65
2023/08/22 00:46:00;;;;;;;;;2.00;2.00;;;;;26.16;35.72;101517.09;5081450;27;46776;-65
2023/08/22 00:48:25;;;;;;;;;0.75;0.75;;;;;26.14;35.46;101512.78;5081776;28;45484;-65
2023/08/22 00:50:51;;;;;;;;;2.00;2.00;;;;;26.10;35.52;101510.31;5081946;28;45433;-65
2023/08/22 00:53:16;;;;;;;;;3.00;1.00;;;;;26.09;35.42;101510.44;5080130;28;46934;-66
2023/08/22 00:55:42;;;;;;;;;2.75;1.00;;;;;26.07;36.05;101521.28;5080063;27;45416;-65
2023/08/22 00:58:07;;;;;;;;;1.75;1.75;;;;;26.04;35.71;101516.09;5081571;28;45240;-65
2023/08/22 01:00:32;;;;;;;;;2.25;2.25;;;;;26.02;36.13;101515.31;5080024;28;45499;-64
2023/08/22 01:02:58;;;;;;;;;2.00;2.00;;;;;26.02;36.03;101520.69;5081387;28;45341;-65
2023/08/22 01:05:29;;;;;;;;;2.25;1.75;;;;;25.98;36.03;101518.34;5081506;27;45328;-65
2023/08/22 01:08:03;;;;;;;;;2.00;1.50;;;;;25.96;36.19;101516.63;5080356;28;45325;-65
2023/08/22 01:10:33;;;;;;;;;2.50;2.50;;;;;25.96;36.14;101516.63;5081166;28;45643;-64
2023/08/22 01:13:07;;;;;;;;;1.25;1.25;;;;;25.96;35.88;101519.31;5081471;28;45263;-65
2023/08/22 01:15:35;;;;;;;;;3.00;2.00;;;;;25.95;36.23;101516.72;5080882;27;45383;-65
2023/08/22 01:18:04;;;;;;;;;1.00;1.00;;;;;25.94;36.61;101512.28;5079681;28;45327;-65
2023/08/22 01:20:29;;;;;;;;;2.00;2.00;;;;;25.93;36.50;101511.41;5081224;28;45519;-64
2023/08/22 01:22:56;;;;;;;;;2.00;1.25;;;;;25.90;36.22;101510.75;5081000;28;45461;-65
2023/08/22 01:25:22;;;;;;;;;0.75;0.75;;;;;25.91;35.84;101505.28;5080668;28;45365;-64
2023/08/22 01:27:59;;;;;;;;;0.25;0.25;;;;;25.91;35.98;101507.09;5081175;28;45519;-64
2023/08/22 01:30:35;;;;;;;;;2.00;2.00;;;;;25.90;36.13;101498.19;5080797;28;45331;-65
2023/08/22 01:33:14;;;;;;;;;0.00;0.00;;;;;25.90;36.49;101503.56;5062548;28;47899;-64
2023/08/22 01:35:43;;;;;;;;;3.00;2.00;;;;;25.88;36.78;101505.47;5079698;28;45408;-65
2023/08/22 01:38:10;;;;;;;;;1.00;0.00;;;;;25.89;36.51;101500.97;5079730;28;45337;-65
2023/08/22 01:40:36;;;;;;;;;0.75;0.75;;;;;25.89;36.52;101503.66;5080798;28;45377;-65
2023/08/22 01:43:02;;;;;;;;;1.25;1.25;;;;;25.87;36.74;101501.06;5080744;28;45405;-64
2023/08/22 01:45:27;;;;;;;;;2.25;1.00;;;;;25.84;36.54;101490.50;5080500;27;45269;-64
2023/08/22 01:47:53;;;;;;;;;2.00;1.00;;;;;25.87;36.77;101494.81;5080814;28;45533;-65
2023/08/22 01:50:18;;;;;;;;;0.50;0.50;;;;;25.86;36.38;101487.72;5081048;28;45477;-65
2023/08/22 01:52:43;;;;;;;;;3.00;1.00;;;;;25.84;36.34;101485.13;5080549;28;46708;-64
2023/08/22 01:55:10;;;;;;;;;1.00;1.00;;;;;25.84;36.82;101486.97;5080766;28;45378;-64
2023/08/22 01:57:36;;;;;;;;;1.00;1.00;;;;;25.84;36.61;101490.50;5080637;28;45333;-65
2023/08/22 02:00:03;;;;;;;;;1.00;1.00;;;;;25.82;36.66;101481.66;5080751;28;45457;-65
2023/08/22 02:02:28;;;;;;;;;1.00;1.00;;;;;25.79;36.42;101471.13;5080152;28;46046;-65
2023/08/22 02:04:53;;;;;;;;;1.50;1.50;;;;;25.82;36.42;101478.97;5080454;27;45428;-64
2023/08/22 02:07:19;;;;;;;;;2.25;1.00;;;;;25.78;36.79;101466.69;5080221;28;48305;-64
2023/08/22 02:09:44;;;;;;;;;1.50;1.00;;;;;25.79;36.38;101466.59;5080514;28;45349;-64
2023/08/22 02:12:09;;;;;;;;;1.00;1.00;;;;;25.77;36.26;101468.53;5080233;28;45255;-64
2023/08/22 02:14:34;;;;;;;;;2.00;0.50;;;;;25.78;36.69;101469.38;5079182;28;46519;-64
2023/08/22 02:17:00;;;;;;;;;1.00;1.00;;;;;25.75;36.79;101464.22;5079767;27;46967;-64
2023/08/22 02:19:25;;;;;;;;;1.50;1.00;;;;;25.75;36.91;101464.22;5079033;28;45438;-65
2023/08/22 02:21:50;;;;;;;;;0.75;0.50;;;;;25.70;36.76;101471.72;5080196;28;46359;-64
2023/08/22 02:24:16;;;;;;;;;0.25;0.00;;;;;25.70;36.73;101466.34;5080235;28;45253;-64
2023/08/22 02:26:42;;;;;;;;;2.00;1.00;;;;;25.68;37.02;101469.13;5078563;27;45302;-65
2023/08/22 02:29:08;;;;;;;;;2.00;1.00;;;;;25.58;37.04;101454.56;5079608;28;45454;-64
2023/08/22 02:31:34;;;;;;;;;3.50;1.75;;;;;25.61;36.97;101468.69;5079596;28;45449;-64
2023/08/22 02:33:59;;;;;;;;;1.00;1.00;;;;;25.58;37.58;101476.09;5080163;28;45332;-65
2023/08/22 02:36:24;;;;;;;;;3.50;1.00;;;;;25.56;36.94;101475.31;5080081;28;45319;-66
2023/08/22 02:38:50;;;;;;;;;2.75;1.00;;;;;25.50;37.26;101468.53;5080217;28;45310;-64
2023/08/22 02:41:15;;;;;;;;;1.50;1.00;;;;;25.50;37.06;101473.91;5079829;28;45370;-65
2023/08/22 02:43:40;;;;;;;;;1.75;1.00;;;;;25.47;37.08;101472.28;5079877;28;54013;-65
2023/08/22 02:46:05;;;;;;;;;0.25;0.25;;;;;25.46;37.36;101464.34;5079797;28;45373;-64
2023/08/22 02:48:31;;;;;;;;;1.00;1.00;;;;;25.44;37.14;101455.50;5080088;28;45362;-65
2023/08/22 02:50:57;;;;;;;;;1.50;0.75;;;;;25.40;36.87;101454.81;5079791;28;45397;-65
2023/08/22 02:53:22;;;;;;;;;0.25;0.25;;;;;25.38;37.20;101459.44;5080014;28;45260;-64
2023/08/22 02:55:48;;;;;;;;;1.00;1.00;;;;;25.37;37.55;101462.22;5079988;28;45307;-65
2023/08/22 02:58:13;;;;;;;;;2.00;0.00;;;;;25.36;37.33;101460.47;5079679;28;45331;-64
2023/08/22 03:00:38;;;;;;;;;1.00;1.00;;;;;25.31;37.34;101458.09;5079526;28;46189;-64
2023/08/22 03:03:04;;;;;;;;;1.00;1.00;;;;;25.26;37.60;101444.94;5079641;28;45329;-64
2023/08/22 03:05:30;;;;;;;;;1.00;1.00;;;;;25.27;37.22;101452.06;5079924;28;45289;-65
2023/08/22 03:07:55;;;;;;;;;0.50;0.50;;;;;25.27;37.83;101454.75;5078261;28;45574;-64
2023/08/22 03:10:20;;;;;;;;;1.75;1.00;;;;;25.26;37.26;101460.22;5078048;28;45317;-65
2023/08/22 03:12:47;;;;;;;;;3.00;1.00;;;;;25.24;37.47;101460.31;5079455;28;48324;-64
2023/08/22 03:15:12;;;;;;;;;0.75;0.75;;;;;25.21;37.80;101465.91;5078213;28;45249;-64
2023/08/22 03:17:37;;;;;;;;;1.00;1.00;;;;;25.18;37.60;101458.00;5078194;28;45773;-64
2023/08/22 03:20:05;;;;;;;;;1.00;0.50;;;;;25.14;37.89;101462.75;5078047;28;46456;-65
2023/08/22 03:22:30;;;;;;;;;1.75;1.00;;;;;25.14;37.88;101453.81;5079554;28;45300;-64
2023/08/22 03:24:55;;;;;;;;;1.00;1.00;;;;;25.11;37.90;101454.03;5079118;28;45297;-65
2023/08/22 03:27:21;;;;;;;;;0.50;0.50;;;;;25.09;37.89;101451.44;5079376;28;45338;-65
2023/08/22 03:29:46;;;;;;;;;1.25;1.25;;;;;25.09;37.63;101448.75;5079463;28;45355;-64
2023/08/22 03:32:11;;;;;;;;;2.75;1.00;;;;;25.07;37.66;101457.84;5079024;28;45342;-65
2023/08/22 03:34:37;;;;;;;;;2.75;1.25;;;;;25.06;38.07;101459.69;5079416;28;45317;-65
2023/08/22 03:37:03;;;;;;;;;2.25;2.25;;;;;25.05;37.71;101457.09;5079365;27;45407;-64
2023/08/22 03:39:28;;;;;;;;;1.50;1.50;;;;;25.02;38.31;101452.78;5080181;28;46265;-64
2023/08/22 03:41:53;;;;;;;;;1.25;1.00;;;;;24.99;38.33;101451.16;5082688;28;45318;-64
2023/08/22 03:44:18;;;;;;;;;1.00;1.00;;;;;24.98;37.78;101445.84;5081050;28;56306;-65
2023/08/22 03:46:44;;;;;;;;;1.75;1.75;;;;;24.98;38.03;101457.50;5082470;27;45491;-65
2023/08/22 03:49:09;;;;;;;;;2.00;1.75;;;;;24.92;38.10;101455.19;5082532;28;45953;-65
2023/08/22 03:51:34;;;;;;;;;3.00;3.00;;;;;24.93;38.17;101462.31;5082635;28;45246;-65
2023/08/22 03:54:00;;;;;;;;;3.25;3.25;;;;;24.93;38.05;101462.31;5082775;28;45318;-65
2023/08/22 03:56:25;;;;;;;;;7.25;6.00;;;;;24.92;38.16;101462.41;5082162;27;45250;-65
2023/08/22 03:58:51;;;;;;;;;9.75;8.00;;;;;24.90;38.09;101461.63;5082414;28;47312;-65
2023/08/22 04:01:16;;;;;;;;;11.75;9.25;;;;;24.91;38.51;101463.34;5082207;28;45268;-65
2023/08/22 04:03:41;;;;;;;;;8.00;8.00;;;;;24.89;38.17;101467.97;5080748;28;45517;-65
2023/08/22 04:06:07;;;;;;;;;4.50;3.25;;;;;24.87;38.37;101460.00;5082380;27;45408;-65
2023/08/22 04:08:32;;;;;;;;;8.50;7.00;;;;;24.84;38.40;101452.13;5082357;28;46123;-64
2023/08/22 04:10:57;;;;;;;;;10.50;6.50;;;;;24.84;38.68;101457.50;5081792;28;48251;-65
2023/08/22 04:13:22;;;;;;;;;5.00;5.00;;;;;24.80;38.33;101454.16;5082566;28;45410;-65
2023/08/22 04:15:48;;;;;;;;;8.00;6.50;;;;;24.83;38.46;101471.91;5081887;27;45517;-64
2023/08/22 04:18:14;;;;;;;;;7.75;6.75;;;;;24.82;38.87;101462.13;5082138;28;46378;-65
2023/08/22 04:20:39;;;;;;;;;3.50;3.50;;;;;24.81;38.64;101463.06;5082048;28;45399;-65
2023/08/22 04:23:05;;;;;;;;;8.00;7.25;;;;;24.78;38.49;101458.75;5082191;27;45272;-65
2023/08/22 04:25:30;;;;;;;;;6.00;5.00;;;;;24.80;38.75;101475.66;5081806;27;45428;-65
2023/08/22 04:27:55;;;;;;;;;6.50;5.00;;;;;24.75;38.75;101464.31;5080196;28;47584;-65
2023/08/22 04:30:21;;;;;;;;;8.00;5.00;;;;;24.77;38.92;101469.59;5081664;28;45243;-65
2023/08/22 04:32:46;;;;;;;;;6.50;5.75;;;;;24.76;38.83;101468.72;5082422;28;45280;-64
2023/08/22 04:35:11;;;;;;;;;6.25;4.25;;;;;24.76;38.74;101470.56;5080412;28;45444;-65
2023/08/22 04:37:37;;;;;;;;;5.50;4.75;;;;;24.74;38.60;101467.09;5081743;28;51785;-65
2023/08/22 04:40:05;;;;;;;;;3.25;2.00;;;;;24.74;38.80;101467.09;5081671;28;45314;-65
2023/08/22 04:42:30;;;;;;;;;6.00;3.75;;;;;24.71;38.90;101464.63;5082090;28;45217;-65
2023/08/22 04:44:56;;;;;;;;;3.00;3.00;;;;;24.74;38.87;101464.41;5081578;28;45236;-65
2023/08/22 04:47:21;;;;;;;;;6.00;3.00;;;;;24.70;39.20;101462.88;5079633;28;58169;-65
2023/08/22 04:49:46;;;;;;;;;4.00;3.25;;;;;24.70;38.62;101461.03;5081676;28;45172;-65
2023/08/22 04:52:12;;;;;;;;;4.25;3.50;;;;;24.72;39.19;101472.56;5079915;28;45367;-65
2023/08/22 04:54:37;;;;;;;;;5.00;3.50;;;;;24.70;38.90;101458.34;5081636;28;45317;-65
2023/08/22 04:57:03;;;;;;;;;3.75;3.00;;;;;24.71;38.97;101472.69;5081391;27;45241;-64
2023/08/22 04:59:28;;;;;;;;;2.00;2.00;;;;;24.71;39.19;101470.84;5081435;28;45317;-65
2023/08/22 05:01:53;;;;;;;;;2.00;2.00;;;;;24.70;39.14;101471.78;5081682;28;45184;-64
2023/08/22 05:04:18;;;;;;;;;1.00;1.00;;;;;24.67;38.86;101456.72;5081347;28;45235;-65
2023/08/22 05:06:44;;;;;;;;;1.25;1.25;;;;;24.68;39.15;101468.38;5081471;27;45281;-65
2023/08/22 05:09:13;;;;;;;;;2.00;2.00;;;;;24.69;39.26;101472.78;5081232;28;45342;-64
2023/08/22 05:11:39;;;;;;;;;2.00;2.00;;;;;24.70;38.96;101476.31;5081427;28;45338;-64
2023/08/22 05:14:04;;;;;;;;;3.00;3.00;;;;;24.70;39.12;101479.00;5081270;28;45263;-65
2023/08/22 05:16:30;;;;;;;;;2.50;1.00;;;;;24.70;39.12;101476.31;5080904;28;45283;-65
2023/08/22 05:18:56;;;;;;;;;2.00;2.00;;;;;24.67;39.36;101486.28;5079830;28;45239;-65
2023/08/22 05:21:21;;;;;;;;;2.75;2.75;;;;;24.67;39.12;101486.28;5080045;28;45287;-65
2023/08/22 05:23:46;;;;;;;;;1.25;1.25;;;;;24.66;39.56;101479.19;5081051;27;45501;-65
2023/08/22 05:26:12;;;;;;;;;3.00;3.00;;;;;24.67;39.48;101475.53;5079597;27;46914;-64
2023/08/22 05:28:37;;;;;;;;;3.50;3.00;;;;;24.66;39.14;101473.81;5080980;28;45229;-64
2023/08/22 05:31:03;;;;;;;;;2.00;2.00;;;;;24.64;39.43;101474.81;5079682;28;45271;-64
2023/08/22 05:33:28;;;;;;;;;1.50;1.50;;;;;24.65;39.96;101490.91;5079557;28;45540;-64
2023/08/22 05:35:54;;;;;;;;;1.75;1.75;;;;;24.66;39.37;101491.75;5081136;28;45531;-64
2023/08/22 05:38:19;;;;;;;;;2.25;2.25;;;;;24.67;39.60;101494.34;5080764;28;45266;-65
2023/08/22 05:40:44;;;;;;;;;2.75;2.75;;;;;24.64;39.45;101493.63;5081009;28;45310;-65
2023/08/22 05:43:10;;;;;;;;;1.50;1.00;;;;;24.67;39.35;101509.63;5079483;28;45499;-65
2023/08/22 05:45:35;;;;;;;;;6.75;5.50;;;;;24.62;39.78;101509.84;5080800;27;45390;-64
2023/08/22 05:48:00;;;;;;;;;2.50;2.50;;;;;24.62;40.02;101517.06;5079205;28;45432;-64
2023/08/22 05:50:26;;;;;;;;;5.00;3.75;;;;;24.59;39.85;101512.75;5080993;28;45362;-64
2023/08/22 05:52:51;;;;;;;;;6.25;5.00;;;;;24.60;39.55;101517.16;5080674;28;45521;-64
2023/08/22 05:55:16;;;;;;;;;4.25;4.25;;;;;24.60;39.68;101514.47;5080629;28;45352;-64
2023/08/22 05:57:42;;;;;;;;;5.25;4.00;;;;;24.60;39.24;101517.16;5080399;28;45444;-65
2023/08/22 06:00:08;;;;;;;;;4.00;4.00;;;;;24.60;39.72;101525.22;5080674;28;45291;-64
2023/08/22 06:02:34;;;;;;;;;4.25;3.25;;;;;24.60;39.97;101529.72;5079642;28;45535;-64
2023/08/22 06:05:00;;;;;;;;;4.50;4.50;;;;;24.60;39.75;101511.78;5080102;28;46266;-64
2023/08/22 06:07:26;;;;;;;;;7.50;6.00;;;;;24.59;39.84;101502.00;5080308;28;45187;-64
2023/08/22 06:09:51;;;;;;;;;6.25;6.25;;;;;24.63;39.93;101513.44;5080316;28;45248;-64
2023/08/22 06:12:17;;;;;;;;;5.75;4.75;;;;;24.56;40.10;101495.94;5080214;28;45228;-65
2023/08/22 06:14:42;;;;;;;;;5.50;5.50;;;;;24.63;39.77;101521.50;5078893;28;46231;-64
2023/08/22 06:17:07;;;;;;;;;8.75;7.00;;;;;24.64;40.06;101531.25;5079674;27;50743;-64
2023/08/22 06:19:33;;;;;;;;;8.75;7.50;;;;;24.65;39.75;101536.59;5080525;28;45454;-64
2023/08/22 06:21:58;;;;;;;;;6.00;4.25;;;;;24.67;39.75;101541.88;5080069;28;50807;-64
2023/08/22 06:24:23;;;;;;;;;5.00;5.00;;;;;24.65;39.79;101547.34;5080095;28;46863;-64
2023/08/22 06:26:49;;;;;;;;;3.25;3.00;;;;;24.65;40.04;101538.41;5080027;28;45273;-65
2023/08/22 06:29:16;;;;;;;;;4.50;4.50;;;;;24.65;40.17;101543.78;5080703;28;45397;-65
2023/08/22 06:31:41;;;;;;;;;4.00;3.00;;;;;24.67;40.21;101542.72;5078475;28;45387;-64
2023/08/22 06:34:06;;;;;;;;;5.50;3.75;;;;;24.67;40.23;101544.56;5079964;28;46280;-64
2023/08/22 06:36:32;;;;;;;;;5.25;4.00;;;;;24.69;40.04;101544.44;5079733;28;45317;-64
2023/08/22 06:38:57;;;;;;;;;5.00;4.00;;;;;24.69;39.89;101542.66;5080270;28;45361;-64
2023/08/22 06:41:22;;;;;;;;;3.50;3.25;;;;;24.69;40.11;101539.97;5077800;28;57826;-64
2023/08/22 06:43:48;;;;;;;;;4.50;3.75;;;;;24.67;40.06;101545.41;5080019;28;49506;-65
2023/08/22 06:46:15;;;;;;;;;2.75;2.75;;;;;24.69;40.11;101539.97;5079470;28;50546;-64
2023/08/22 06:48:41;;;;;;;;;3.00;2.25;;;;;24.71;39.96;101542.53;5080171;28;45235;-65
2023/08/22 06:51:06;;;;;;;;;5.00;4.00;;;;;24.71;40.42;101540.69;5079787;28;45235;-65
2023/08/22 06:53:31;;;;;;;;;2.00;2.00;;;;;24.73;40.52;101545.97;5079893;28;45311;-65
2023/08/22 06:55:57;;;;;;;;;3.00;2.50;;;;;24.73;40.15;101546.84;5079398;27;49327;-64
2023/08/22 06:58:22;;;;;;;;;2.75;2.75;;;;;24.75;40.40;101546.75;5080077;28;45202;-65
2023/08/22 07:00:48;;;;;;;;;3.75;3.00;;;;;24.76;40.56;101549.34;5079559;28;45174;-64
2023/08/22 07:03:13;;;;;;;;;2.75;2.75;;;;;24.80;40.91;101550.03;5079606;28;46073;-65
2023/08/22 07:05:39;;;;;;;;;4.00;3.25;;;;;24.82;40.74;101550.81;5079470;28;45413;-65
2023/08/22 07:08:05;;;;;;;;;2.25;2.25;;;;;24.80;40.46;101544.66;5079965;28;45369;-65
2023/08/22 07:10:30;;;;;;;;;3.50;3.50;;;;;24.89;40.40;101554.84;5079411;28;45501;-64
2023/08/22 07:12:55;;;;;;;;;2.75;2.75;;;;;24.93;40.79;101552.81;5078310;28;45951;-65
2023/08/22 07:15:21;;;;;;;;;2.50;2.50;;;;;24.95;40.57;101562.50;5081617;28;45346;-64
2023/08/22 07:17:46;;;;;;;;;3.00;3.00;;;;;24.98;40.80;101567.72;5082882;28;50302;-65
2023/08/22 07:20:12;;;;;;;;;3.75;3.00;;;;;24.99;40.51;101564.06;5083287;28;45379;-65
2023/08/22 07:22:38;;;;;;;;;5.75;4.25;;;;;25.02;40.89;101559.44;5083118;28;45395;-65
2023/08/22 07:25:04;;;;;;;;;3.00;3.00;;;;;25.06;40.66;101558.31;5082501;27;45310;-65
2023/08/22 07:27:29;;;;;;;;;2.50;2.50;;;;;25.07;40.20;101549.25;5083266;27;45394;-65
2023/08/22 07:29:54;;;;;;;;;3.25;3.25;;;;;25.06;40.63;101548.41;5081528;28;45732;-65
2023/08/22 07:32:20;;;;;;;;;4.00;4.00;;;;;25.09;40.82;101550.91;5083061;28;45473;-65
2023/08/22 07:34:48;;;;;;;;;6.25;4.00;;;;;25.11;40.73;101548.97;5081526;28;45613;-64
2023/08/22 07:37:15;;;;;;;;;3.00;3.00;;;;;25.14;40.54;101551.50;5081765;28;45533;-64
2023/08/22 07:39:41;;;;;;;;;2.75;2.75;;;;;25.17;40.62;101554.91;5082659;28;45506;-64
2023/08/22 07:42:06;;;;;;;;;3.00;3.00;;;;;25.16;40.40;101551.38;5082711;28;45429;-64
2023/08/22 07:44:32;;;;;;;;;3.00;3.00;;;;;25.19;40.77;101547.63;5082642;28;45306;-64
2023/08/22 07:46:57;;;;;;;;;5.00;2.25;;;;;25.20;40.49;101552.91;5082837;27;45320;-64
2023/08/22 07:49:24;;;;;;;;;3.50;2.75;;;;;25.23;40.70;101549.16;5082560;28;45381;-64
2023/08/22 07:51:49;;;;;;;;;2.25;2.25;;;;;25.24;40.58;101551.75;5082766;28;45495;-64
2023/08/22 07:54:15;;;;;;;;;3.00;3.00;;;;;25.24;40.83;101540.97;5080857;28;45292;-64
2023/08/22 07:56:40;;;;;;;;;4.00;2.50;;;;;25.27;40.60;101540.81;5082664;27;45222;-64
2023/08/22 07:59:05;;;;;;;;;4.50;4.00;;;;;25.31;40.76;101546.84;5082404;28;45457;-64
2023/08/22 08:01:31;;;;;;;;;3.00;3.00;;;;;25.31;40.44;101552.22;5082356;28;47917;-64
2023/08/22 08:03:57;;;;;;;;;4.25;4.00;;;;;25.37;40.85;101556.38;5082257;28;45286;-64
2023/08/22 08:06:22;;;;;;;;;3.00;3.00;;;;;25.37;40.58;101565.31;5082582;27;45344;-64
2023/08/22 08:08:48;;;;;;;;;3.00;3.00;;;;;25.39;40.63;101565.22;5082231;28;45247;-64
2023/08/22 08:11:13;;;;;;;;;3.50;3.00;;;;;25.43;40.85;101569.44;5082056;27;45247;-64
2023/08/22 08:13:38;;;;;;;;;3.00;3.00;;;;;25.45;40.43;101571.06;5082249;28;45198;-64
2023/08/22 08:16:06;;;;;;;;;4.75;3.00;;;;;25.46;41.02;101570.09;5082163;27;45487;-64
2023/08/22 08:18:32;;;;;;;;;2.00;2.00;;;;;25.50;40.76;101569.91;5082199;28;45350;-64
2023/08/22 08:20:57;;;;;;;;;4.25;4.25;;;;;25.54;41.11;101572.28;5082016;28;45384;-64
2023/08/22 08:23:22;;;;;;;;;3.50;2.00;;;;;25.55;41.00;101565.97;5081679;27;49680;-64
2023/08/22 08:25:48;;;;;;;;;5.50;4.00;;;;;25.62;40.73;101575.38;5081218;28;45370;-64
2023/08/22 08:28:14;;;;;;;;;5.00;3.50;;;;;25.67;40.96;101571.50;5081933;28;45344;-64
2023/08/22 08:30:39;;;;;;;;;5.00;3.50;;;;;25.72;40.76;101572.94;5081964;28;45900;-64
2023/08/22 08:33:06;;;;;;;;;4.00;4.00;;;;;25.73;40.95;101563.88;5081469;28;58371;-64
2023/08/22 08:35:32;;;;;;;;;3.00;3.00;;;;;25.76;40.87;101569.09;5080969;27;45262;-64
2023/08/22 08:37:57;;;;;;;;;4.00;2.75;;;;;25.82;41.30;101567.81;5081737;28;45541;-64
2023/08/22 08:40:22;;;;;;;;;3.00;3.00;;;;;25.87;40.60;101565.66;5079994;28;57858;-64
2023/08/22 08:42:48;;;;;;;;;3.50;2.25;;;;;25.91;41.27;101561.81;5081857;28;45301;-64
2023/08/22 08:45:16;;;;;;;;;3.00;3.00;;;;;25.94;41.00;101558.06;5081986;27;45240;-64
2023/08/22 08:47:42;;;;;;;;;2.75;2.75;;;;;26.02;40.76;101565.63;5081776;28;45297;-64
2023/08/22 08:50:09;;;;;;;;;3.75;3.75;;;;;26.08;40.70;101567.94;5081547;28;45348;-64
2023/08/22 08:52:34;;;;;;;;;4.25;3.00;;;;;26.14;41.01;101564.84;5081583;28;45294;-64
2023/08/22 08:55:03;;;;;;;;;3.00;2.50;;;;;26.19;41.14;101562.69;5081633;27;45654;-64
2023/08/22 08:57:29;;;;;;;;;6.00;3.50;;;;;26.26;40.96;101568.53;5081517;28;45393;-64
2023/08/22 08:59:54;;;;;;;;;3.00;2.75;;;;;26.32;40.58;101561.88;5081293;28;46620;-64
2023/08/22 09:02:20;;;;;;;;;4.00;3.00;;;;;26.38;41.09;101558.75;5081207;28;49465;-64
2023/08/22 09:04:45;;;;;;;;;2.75;2.75;;;;;26.44;40.49;101558.34;5081763;28;45333;-64
2023/08/22 09:07:11;;;;;;;;;4.25;2.00;;;;;26.49;40.82;101556.19;5081295;28;45426;-64
2023/08/22 09:09:36;;;;;;;;;2.00;2.00;;;;;26.55;41.05;101555.78;5079840;28;46872;-64
2023/08/22 09:12:10;;;;;;;;;2.75;2.75;;;;;26.64;41.08;101558.78;5081345;28;45305;-64
2023/08/22 09:14:41;;;;;;;;;3.00;2.50;;;;;26.70;40.99;101555.66;5081628;28;45311;-64
2023/08/22 09:17:06;;;;;;;;;11.00;11.00;;;;;26.76;40.85;101549.88;5080711;28;45244;-64
2023/08/22 09:19:33;;;;;;;;;6.00;4.00;;;;;26.84;41.04;101552.91;5081116;28;45307;-64
2023/08/22 09:22:00;;;;;;;;;3.00;3.00;;;;;26.91;40.99;101548.78;5081071;28;45321;-64
2023/08/22 09:24:27;;;;;;;;;3.25;3.25;;;;;27.00;40.81;101549.97;5079826;28;45316;-64
2023/08/22 09:26:52;;;;;;;;;2.25;2.25;;;;;27.07;40.83;101550.41;5080739;27;45310;-65
2023/08/22 09:29:26;;;;;;;;;0.25;0.25;;;;;27.17;40.46;101556.84;5081171;28;45464;-64
2023/08/22 09:31:55;;;;;;;;;1.00;1.00;;;;;27.24;40.51;101550.06;5079450;28;45278;-64
2023/08/22 09:34:22;;;;;;;;;2.00;2.00;;;;;27.35;40.54;101551.09;5080952;28;45267;-64
2023/08/22 09:36:47;;;;;;;;;3.00;3.00;;;;;27.45;40.17;101548.63;5080706;27;45175;-64
2023/08/22 09:39:16;;;;;;;;;4.75;2.00;;;;;27.51;40.38;101549.03;5080886;28;46288;-64
2023/08/22 09:41:42;;;;;;;;;3.00;3.00;;;;;27.65;40.16;101550.72;5079390;28;45810;-64
2023/08/22 09:44:09;;;;;;;;;2.00;2.00;;;;;27.76;40.33;101549.94;5079539;28;45339;-64
2023/08/22 09:46:38;;;;;;;;;5.00;2.00;;;;;27.89;40.06;101542.59;5080567;28;45479;-64
2023/08/22 09:49:06;;;;;;;;;2.75;2.75;;;;;28.02;40.49;101547.94;5078779;28;48090;-64
2023/08/22 09:51:33;;;;;;;;;2.25;2.25;;;;;28.16;39.75;101548.75;5080586;28;45313;-64
2023/08/22 09:54:03;;;;;;;;;1.75;1.75;;;;;28.31;39.66;101552.13;5080815;28;45361;-64
2023/08/22 09:56:30;;;;;;;;;2.00;1.00;;;;;28.47;39.84;101544.56;5080539;27;45465;-64
2023/08/22 09:58:57;;;;;;;;;0.50;0.50;;;;;28.69;40.19;101545.59;5080603;28;45414;-64
2023/08/22 10:01:24;;;;;;;;;3.25;2.75;;;;;28.90;39.57;101548.47;5080246;28;45326;-64
2023/08/22 10:03:53;;;;;;;;;2.00;2.00;;;;;29.13;39.74;101549.34;5080655;28;45352;-63
2023/08/22 10:06:24;;;;;;;;;1.50;1.00;;;;;29.41;39.52;101547.13;5080318;27;45158;-64
2023/08/22 10:08:50;;;;;;;;;0.00;0.00;;;;;29.70;39.27;101535.72;5078927;28;47624;-64
2023/08/22 10:11:17;;;;;;;;;3.25;1.50;;;;;30.05;39.11;101539.19;5079006;28;45415;-64
2023/08/22 10:13:43;;;;;;;;;0.75;0.50;;;;;30.39;39.03;101541.72;5079280;28;45181;-63
2023/08/22 10:16:09;;;;;;;;;1.50;0.75;;;;;30.73;38.80;101536.09;5080124;27;45239;-64
2023/08/22 10:18:35;;;;;;;;;1.75;1.75;;;;;31.10;38.78;101528.28;5080161;28;46144;-63
2023/08/22 10:21:03;;;;;;;;;1.25;1.25;;;;;31.49;38.98;101538.41;5080363;28;45363;-64
2023/08/22 10:23:52;;;;;;;;;0.00;0.00;;;;;31.95;38.54;101535.19;5080229;27;45378;-64
2023/08/22 10:26:22;;;;;;;;;0.75;0.75;;;;;32.36;38.61;101534.03;5080055;27;45256;-64
2023/08/22 10:29:12;;;;;;;;;0.00;0.00;;;;;32.82;38.02;101536.94;5079973;28;45390;-64
2023/08/22 10:31:59;;;;;;;;;1.75;0.75;;;;;33.30;37.91;101543.19;5079864;27;45586;-64
2023/08/22 10:34:25;;;;;;;;;1.50;0.00;;;;;33.69;37.59;101537.50;5080331;27;45308;-64
2023/08/22 10:36:59;;;;;;;;;0.00;0.00;;;;;34.10;37.27;101528.00;5079906;27;45439;-64
2023/08/22 10:39:47;;;;;;;;;0.00;0.00;;;;;34.56;37.06;101534.16;5080061;28;45973;-64
2023/08/22 10:42:12;;;;;;;;;0.25;0.25;;;;;34.97;36.69;101537.16;5079972;28;45292;-64
2023/08/22 10:44:38;;;;;;;;;0.00;0.00;;;;;35.32;36.21;101526.16;5080047;28;45344;-64
2023/08/22 10:47:08;;;;;;;;;0.00;0.00;;;;;35.72;36.16;101530.03;5078657;28;45871;-64
2023/08/22 10:49:38;;;;;;;;;2.25;1.00;;;;;36.10;35.49;101527.69;5077715;28;46970;-64
2023/08/22 10:52:07;;;;;;;;;0.00;0.00;;;;;36.46;35.27;101526.47;5079761;28;45342;-64
2023/08/22 10:55:27;;;;;;;;;0.00;0.00;;;;;36.87;34.72;101525.53;5078520;28;45393;-64
2023/08/22 10:57:54;;;;;;;;;1.75;0.75;;;;;37.27;34.84;101523.63;5037029;28;45608;-66
2023/08/22 11:00:19;;;;;;;;;0.25;0.25;;;;;37.60;34.24;101525.34;5065759;28;46360;-64
2023/08/22 11:02:48;;;;;;;;;1.50;1.00;;;;;37.91;34.16;101513.47;5079530;28;45239;-64
2023/08/22 11:05:15;;;;;;;;;0.75;0.75;;;;;38.24;33.67;101524.16;5079808;28;45230;-64
2023/08/22 11:07:42;;;;;;;;;0.00;0.00;;;;;38.53;33.52;101518.72;5078202;28;45528;-64
2023/08/22 11:10:12;;;;;;;;;0.75;0.75;;;;;38.83;33.32;101528.88;5079240;28;45363;-64
2023/08/22 11:12:38;;;;;;;;;2.50;1.00;;;;;39.10;33.45;101524.56;5079458;28;45500;-64
2023/08/22 11:15:04;;;;;;;;;1.75;0.75;;;;;39.41;33.01;101531.75;5079544;27;45219;-64
2023/08/22 11:17:29;;;;;;;;;0.75;0.75;;;;;39.69;32.37;101531.00;5079470;28;45597;-64
2023/08/22 11:19:57;;;;;;;;;0.75;0.00;;;;;39.95;32.52;101521.28;5079454;28;45394;-64
2023/08/22 11:22:22;;;;;;;;;2.00;1.00;;;;;40.27;32.02;101521.78;5079461;28;45316;-64